Terminal Aerodrome Forecast
Issued by NWS

Home | Current Version | Previous Version | Text Only | Print | Product List | Glossary On
Versions: 1 2 3 4 5 6 7 8 9 10 11 12 13 14 15
000
FTUS43 KGRB 100310 AAA
TAFCWA
TAF AMD
KCWA 100310Z 1003/1024 27008KT P6SM -SHSN SCT018 BKN030
     FM100500 27006KT P6SM BKN025
     FM100900 28006KT P6SM SCT025
     FM101800 28006KT P6SM BKN250
     FM102300 VRB03KT P6SM BKN025=

USA.gov is the U.S. government's official web portal to all federal, state and local government web resources and services.